TimeCST,TemperatureF,Dew PointF,Humidity,Sea Level PressureIn,VisibilityMPH,Wind Direction,Wind SpeedMPH,Gust SpeedMPH,PrecipitationIn,Events,Conditions,WindDirDegrees,DateUTC
12:52 AM,21.0,14.0,74,30.40,10.0,South,6.9,-,N/A,,Clear,180,2012-12-30 06:52:00
1:52 AM,19.0,12.9,77,30.41,10.0,SSE,5.8,-,N/A,,Clear,160,2012-12-30 07:52:00
2:52 AM,19.9,14.0,78,30.40,10.0,South,4.6,-,N/A,,Clear,170,2012-12-30 08:52:00
3:52 AM,18.0,12.9,81,30.42,10.0,South,8.1,-,N/A,,Clear,170,2012-12-30 09:52:00
4:52 AM,19.0,14.0,81,30.41,10.0,South,9.2,-,N/A,,Clear,170,2012-12-30 10:52:00
5:52 AM,19.9,14.0,78,30.42,10.0,SSE,9.2,-,N/A,,Clear,160,2012-12-30 11:52:00
6:52 AM,19.4,15.8,86,30.38,10.0,SSE,8.1,-,N/A,,Clear,150,2012-12-30 12:52:00
7:52 AM,21.9,17.1,82,30.42,8.0,SSE,6.9,-,N/A,,Clear,160,2012-12-30 13:52:00
8:52 AM,24.1,19.0,81,30.42,8.0,SSE,6.9,-,N/A,,Clear,160,2012-12-30 14:52:00
9:52 AM,30.9,23.0,72,30.45,10.0,SSW,10.4,-,N/A,,Clear,200,2012-12-30 15:52:00
10:52 AM,35.1,24.1,64,30.43,10.0,South,10.4,-,N/A,,Clear,170,2012-12-30 16:52:00
11:52 AM,41.0,19.0,41,30.36,10.0,South,13.8,-,N/A,,Clear,190,2012-12-30 17:52:00
12:52 PM,42.1,17.1,37,30.35,10.0,South,15.0,-,N/A,,Clear,190,2012-12-30 18:52:00
1:52 PM,42.1,17.1,37,30.33,10.0,SSW,11.5,-,N/A,,Clear,200,2012-12-30 19:52:00
2:52 PM,43.0,15.1,32,30.32,10.0,SSW,15.0,-,N/A,,Clear,200,2012-12-30 20:52:00
3:52 PM,41.0,17.1,38,30.31,10.0,South,13.8,-,N/A,,Clear,190,2012-12-30 21:52:00
4:52 PM,37.0,18.0,46,30.30,10.0,South,9.2,-,N/A,,Clear,190,2012-12-30 22:52:00
5:52 PM,35.1,19.0,52,30.28,10.0,South,8.1,-,N/A,,Clear,170,2012-12-30 23:52:00
6:52 PM,37.0,19.0,48,30.28,10.0,South,9.2,-,N/A,,Clear,180,2012-12-31 00:52:00
7:52 PM,37.9,17.1,43,30.25,10.0,South,11.5,-,N/A,,Clear,170,2012-12-31 01:52:00
8:52 PM,37.0,18.0,46,30.24,10.0,SSE,11.5,-,N/A,,Clear,160,2012-12-31 02:52:00
9:52 PM,36.0,17.1,46,30.23,10.0,SSE,10.4,-,N/A,,Clear,160,2012-12-31 03:52:00
10:52 PM,36.0,17.1,46,30.22,10.0,South,12.7,-,N/A,,Clear,170,2012-12-31 04:52:00
11:52 PM,36.0,18.0,48,30.23,10.0,South,13.8,-,N/A,,Clear,190,2012-12-31 05:52:00